ADDS METAR Data INFO
IDs: Format: Raw Decoded Include TAF

Data at: 0723 UTC 16 Jan 2018

EGBB 160650Z 27009KT 9999 FEW024 04/00 Q0992

No METAR found for EGBE

No METAR found for EGBJ

EGVN 160650Z 26009KT 9999 FEW040 BKN080 05/00 Q0994 NOSIG

EGTK 160650Z 26012KT 9999 FEW025 SCT040 04/01 Q0994

No METAR found for EGWC